createdAt,value
2019-02-15T00:01:56.367Z,90.50
2019-02-15T00:04:26.911Z,90.20
2019-02-15T00:06:57.455Z,90.00
2019-02-15T00:09:27.972Z,90.10
2019-02-15T00:11:58.762Z,89.70
2019-02-15T00:14:30.728Z,90.20
2019-02-15T00:17:01.341Z,89.90
2019-02-15T00:19:40.947Z,89.70
2019-02-15T00:22:11.458Z,90.50
2019-02-15T00:24:42.021Z,89.80
2019-02-15T00:27:12.553Z,90.00
2019-02-15T00:29:43.124Z,90.10
2019-02-15T00:32:13.840Z,89.60
2019-02-15T00:34:44.437Z,89.60
2019-02-15T00:37:14.945Z,89.60
2019-02-15T00:39:45.707Z,89.20
2019-02-15T00:42:16.223Z,88.90
2019-02-15T00:44:46.821Z,90.00
2019-02-15T00:47:34.613Z,89.70
2019-02-15T00:50:33.716Z,89.50
2019-02-15T00:53:28.972Z,89.90
2019-02-15T00:56:18.355Z,90.20
2019-02-15T00:58:57.965Z,90.20
2019-02-15T01:01:46.108Z,90.20
2019-02-15T01:04:23.782Z,90.00
2019-02-15T01:07:13.202Z,90.30
2019-02-15T01:10:14.273Z,90.00
2019-02-15T01:12:54.882Z,89.70
2019-02-15T01:15:25.923Z,89.70
2019-02-15T01:17:57.041Z,89.90
2019-02-15T01:20:27.578Z,89.50
2019-02-15T01:22:58.222Z,90.20
2019-02-15T01:25:31.971Z,90.20
2019-02-15T01:28:17.951Z,89.70
2019-02-15T01:31:13.524Z,90.10
2019-02-15T01:34:01.912Z,89.70
2019-02-15T01:36:55.667Z,89.40
2019-02-15T01:39:41.347Z,89.10
2019-02-15T01:42:20.896Z,89.00
2019-02-15T01:44:58.128Z,89.00
2019-02-15T01:47:32.496Z,89.70
2019-02-15T01:50:03.016Z,89.00
2019-02-15T01:52:33.544Z,90.30
2019-02-15T01:55:04.078Z,90.20
2019-02-15T01:57:35.671Z,90.50
2019-02-15T02:00:08.987Z,90.30
2019-02-15T02:02:39.562Z,90.70
2019-02-15T02:05:10.137Z,90.90
2019-02-15T02:07:40.724Z,90.90
2019-02-15T02:10:12.153Z,90.90
2019-02-15T02:12:43.696Z,91.00
2019-02-15T02:15:14.296Z,90.80
2019-02-15T02:17:44.815Z,90.50
2019-02-15T02:20:15.605Z,90.70
2019-02-15T02:22:46.162Z,90.60
2019-02-15T02:25:16.653Z,90.30
2019-02-15T02:27:47.221Z,90.20
2019-02-15T02:30:18.157Z,90.10
2019-02-15T02:32:48.644Z,90.00
2019-02-15T02:35:19.217Z,90.20
2019-02-15T02:37:49.716Z,89.90
2019-02-15T02:40:20.232Z,90.10
2019-02-15T02:42:50.804Z,90.00
2019-02-15T02:45:21.346Z,90.30
2019-02-15T02:47:51.881Z,90.20
2019-02-15T02:50:22.419Z,90.30
2019-02-15T02:52:52.889Z,90.40
2019-02-15T02:55:23.397Z,90.10
2019-02-15T02:57:53.996Z,90.10
2019-02-15T03:00:33.315Z,90.00
2019-02-15T03:02:57.032Z,90.00
2019-02-15T03:05:27.632Z,90.30
2019-02-15T03:07:58.170Z,90.50
2019-02-15T03:10:28.701Z,90.20
2019-02-15T03:12:59.255Z,90.00
2019-02-15T03:15:29.870Z,89.90
2019-02-15T03:18:00.466Z,90.10
2019-02-15T03:20:31.753Z,90.00
2019-02-15T03:23:02.284Z,90.00
2019-02-15T03:25:32.798Z,89.90
2019-02-15T03:28:03.273Z,90.30
2019-02-15T03:30:34.395Z,90.00
2019-02-15T03:33:05.905Z,90.00
2019-02-15T03:35:36.416Z,90.10
2019-02-15T03:38:22.495Z,90.00
2019-02-15T03:40:56.681Z,90.00
2019-02-15T03:43:27.149Z,89.60
2019-02-15T03:45:57.660Z,90.00
2019-02-15T03:48:28.259Z,89.70
2019-02-15T03:50:58.754Z,89.60
2019-02-15T03:53:29.315Z,89.60
2019-02-15T03:55:59.880Z,89.50
2019-02-15T03:58:30.381Z,90.00
2019-02-15T04:01:00.885Z,90.00
2019-02-15T04:03:31.589Z,90.30
2019-02-15T04:06:02.174Z,90.20
2019-02-15T04:08:32.717Z,90.40
2019-02-15T04:11:03.211Z,90.20
2019-02-15T04:13:33.700Z,90.30
2019-02-15T04:16:04.293Z,90.20
2019-02-15T04:18:34.791Z,90.50
2019-02-15T04:21:05.433Z,90.50
2019-02-15T04:23:36.056Z,90.40
2019-02-15T04:26:06.789Z,90.40
2019-02-15T04:28:37.352Z,90.10
2019-02-15T04:31:07.920Z,90.10
2019-02-15T04:33:38.523Z,90.00
2019-02-15T04:36:09.312Z,90.10
2019-02-15T04:38:39.813Z,90.00
2019-02-15T04:41:10.416Z,89.70
2019-02-15T04:43:40.991Z,89.50
2019-02-15T04:46:11.582Z,89.20
2019-02-15T04:48:43.326Z,89.50
2019-02-15T04:51:14.962Z,90.00
2019-02-15T04:53:45.510Z,90.00
2019-02-15T04:56:16.234Z,90.00
2019-02-15T04:58:46.818Z,89.80
2019-02-15T05:01:17.389Z,89.80
2019-02-15T05:03:47.889Z,90.00
2019-02-15T05:06:18.469Z,89.50
2019-02-15T05:08:49.031Z,89.60
2019-02-15T05:11:19.653Z,89.40
2019-02-15T05:13:50.181Z,90.00
2019-02-15T05:16:20.729Z,89.30
2019-02-15T05:18:51.340Z,89.30
2019-02-15T05:21:21.836Z,89.40
2019-02-15T05:23:52.324Z,89.50
2019-02-15T05:26:22.801Z,89.70
2019-02-15T05:28:53.289Z,89.50
2019-02-15T05:31:23.811Z,89.30
2019-02-15T05:33:54.305Z,89.30
2019-02-15T05:36:24.819Z,89.80
2019-02-15T05:38:55.489Z,89.00
2019-02-15T05:41:26.012Z,89.10
2019-02-15T05:43:56.496Z,88.80
2019-02-15T05:46:26.989Z,88.90
2019-02-15T05:48:57.458Z,90.00
2019-02-15T05:51:28.333Z,91.80
2019-02-15T05:53:59.028Z,91.20
2019-02-15T05:56:30.085Z,91.40
2019-02-15T05:59:00.852Z,91.00
2019-02-15T06:01:31.809Z,91.10
2019-02-15T06:04:02.717Z,90.60
2019-02-15T06:06:33.497Z,90.60
2019-02-15T06:09:04.946Z,90.80
2019-02-15T06:11:35.984Z,90.90
2019-02-15T06:14:06.892Z,90.70
2019-02-15T06:16:37.389Z,90.60
2019-02-15T06:19:07.914Z,90.50
2019-02-15T06:21:38.533Z,90.40
2019-02-15T06:24:09.353Z,90.30
2019-02-15T06:26:39.888Z,90.20
2019-02-15T06:29:10.792Z,89.90
2019-02-15T06:31:41.657Z,90.00
2019-02-15T06:34:12.576Z,90.10
2019-02-15T06:36:43.066Z,90.10
2019-02-15T06:39:13.646Z,90.10
2019-02-15T06:41:44.191Z,89.90
2019-02-15T06:44:15.623Z,89.60
2019-02-15T06:46:46.173Z,89.50
2019-02-15T06:49:16.681Z,89.60
2019-02-15T06:51:47.175Z,89.40
2019-02-15T06:54:17.743Z,89.10
2019-02-15T06:56:48.242Z,89.00
2019-02-15T06:59:36.548Z,89.00
2019-02-15T07:02:28.201Z,89.20
2019-02-15T07:05:21.307Z,89.40
2019-02-15T07:07:51.892Z,88.80
2019-02-15T07:10:22.481Z,88.70
2019-02-15T07:12:53.020Z,88.60
2019-02-15T07:15:23.628Z,88.60
2019-02-15T07:17:54.128Z,89.00
2019-02-15T07:20:24.648Z,88.40
2019-02-15T07:22:55.464Z,88.50
2019-02-15T07:25:26.395Z,88.20
2019-02-15T07:27:57.010Z,88.20
2019-02-15T07:30:27.937Z,88.80
2019-02-15T07:32:58.488Z,88.10
2019-02-15T07:35:28.961Z,87.90
2019-02-15T07:37:59.960Z,87.80
2019-02-15T07:40:30.898Z,88.20
2019-02-15T07:43:01.527Z,88.20
2019-02-15T07:45:32.079Z,87.90
2019-02-15T07:48:02.641Z,87.80
2019-02-15T07:50:33.107Z,88.00
2019-02-15T07:53:03.661Z,88.00
2019-02-15T07:55:34.173Z,87.80
2019-02-15T07:58:05.121Z,87.60
2019-02-15T08:00:35.696Z,87.60
2019-02-15T08:03:06.248Z,87.70
2019-02-15T08:05:36.722Z,87.90
2019-02-15T08:08:07.864Z,88.00
2019-02-15T08:10:39.567Z,87.80
2019-02-15T08:13:10.232Z,88.00
2019-02-15T08:15:40.704Z,87.70
2019-02-15T08:18:11.298Z,87.50
2019-02-15T08:20:41.830Z,87.30
2019-02-15T08:23:12.368Z,87.10
2019-02-15T08:25:43.400Z,87.10
2019-02-15T08:28:13.933Z,87.10
2019-02-15T08:30:44.412Z,87.60
2019-02-15T08:33:14.912Z,87.90
2019-02-15T08:35:45.421Z,88.00
2019-02-15T08:38:15.987Z,87.90
2019-02-15T08:40:46.481Z,87.80
2019-02-15T08:43:17.596Z,87.60
2019-02-15T08:45:48.461Z,87.40
2019-02-15T08:48:18.993Z,87.30
2019-02-15T08:50:49.521Z,87.50
2019-02-15T08:53:20.097Z,87.70
2019-02-15T08:55:51.203Z,87.70
2019-02-15T08:58:22.260Z,88.00
2019-02-15T09:00:52.804Z,88.10
2019-02-15T09:03:24.374Z,89.00
2019-02-15T09:05:55.248Z,88.20
2019-02-15T09:08:25.755Z,87.70
2019-02-15T09:10:56.259Z,87.60
2019-02-15T09:13:26.761Z,87.60
2019-02-15T09:15:57.278Z,87.70
2019-02-15T09:18:27.927Z,87.50
2019-02-15T09:20:58.520Z,87.30
2019-02-15T09:23:29.080Z,87.20
2019-02-15T09:25:59.646Z,86.90
2019-02-15T09:28:35.068Z,86.80
2019-02-15T09:31:05.554Z,86.90
2019-02-15T09:33:36.056Z,86.70
2019-02-15T09:36:06.654Z,86.80
2019-02-15T09:38:37.155Z,86.90
2019-02-15T09:41:07.722Z,86.80
2019-02-15T09:43:38.254Z,86.60
2019-02-15T09:46:08.773Z,86.90
2019-02-15T09:48:39.350Z,87.10
2019-02-15T09:51:09.831Z,86.70
2019-02-15T09:53:40.369Z,86.70
2019-02-15T09:56:11.000Z,86.60
2019-02-15T09:58:41.624Z,86.30
2019-02-15T10:01:12.161Z,86.10
2019-02-15T10:03:42.695Z,85.90
2019-02-15T10:06:13.223Z,85.70
2019-02-15T10:08:43.745Z,85.50
2019-02-15T10:11:14.340Z,85.30
2019-02-15T10:13:44.942Z,85.10
2019-02-15T10:16:16.580Z,85.10
2019-02-15T10:18:47.207Z,85.30
2019-02-15T10:21:17.845Z,85.50
2019-02-15T10:23:48.397Z,85.60
2019-02-15T10:26:18.974Z,85.30
2019-02-15T10:28:49.469Z,85.20
2019-02-15T10:31:20.081Z,85.00
2019-02-15T10:33:50.602Z,85.40
2019-02-15T10:36:21.144Z,85.60
2019-02-15T10:38:51.745Z,85.10
2019-02-15T10:41:22.235Z,85.50
2019-02-15T10:43:52.816Z,85.10
2019-02-15T10:46:23.373Z,84.90
2019-02-15T10:48:53.977Z,84.90
2019-02-15T10:51:24.523Z,85.00
2019-02-15T10:53:55.149Z,84.80
2019-02-15T10:56:26.099Z,85.00
2019-02-15T10:58:56.693Z,85.00
2019-02-15T11:01:27.212Z,84.80
2019-02-15T11:03:57.752Z,85.40
2019-02-15T11:06:28.408Z,84.40
2019-02-15T11:08:59.105Z,84.60
2019-02-15T11:11:29.602Z,84.50
2019-02-15T11:14:00.206Z,84.30
2019-02-15T11:16:30.755Z,84.50
2019-02-15T11:19:01.282Z,84.20
2019-02-15T11:21:31.789Z,85.00
2019-02-15T11:24:02.432Z,84.30
2019-02-15T11:26:32.984Z,84.70
2019-02-15T11:29:03.600Z,84.70
2019-02-15T11:31:36.428Z,84.80
2019-02-15T11:34:07.473Z,84.50
2019-02-15T11:36:38.359Z,84.50
2019-02-15T11:39:09.416Z,84.70
2019-02-15T11:41:39.930Z,84.90
2019-02-15T11:44:10.462Z,85.00
2019-02-15T11:46:40.996Z,85.00
2019-02-15T11:49:12.646Z,85.00
2019-02-15T11:51:43.192Z,85.20
2019-02-15T11:54:23.144Z,84.90
2019-02-15T11:56:46.553Z,85.30
2019-02-15T11:59:17.079Z,85.40
2019-02-15T12:01:47.762Z,85.10
2019-02-15T12:04:18.754Z,85.90
2019-02-15T12:06:50.268Z,85.50
2019-02-15T12:09:20.884Z,85.20
2019-02-15T12:11:51.423Z,85.40
2019-02-15T12:14:22.096Z,85.20
2019-02-15T12:16:52.683Z,85.30
2019-02-15T12:19:23.276Z,85.10
2019-02-15T12:21:53.857Z,84.80
2019-02-15T12:24:24.710Z,84.90
2019-02-15T12:26:55.742Z,85.00
2019-02-15T12:29:26.313Z,84.90
2019-02-15T12:31:56.852Z,85.30
2019-02-15T12:34:27.388Z,85.10
2019-02-15T12:36:58.293Z,85.40
2019-02-15T12:39:28.996Z,85.50
2019-02-15T12:41:59.648Z,85.40
2019-02-15T12:44:30.274Z,85.40
2019-02-15T12:47:00.824Z,85.60
2019-02-15T12:49:31.377Z,85.50
2019-02-15T12:52:02.049Z,85.50
2019-02-15T12:54:33.178Z,85.50
2019-02-15T12:57:03.725Z,85.50
2019-02-15T12:59:34.272Z,86.10
2019-02-15T13:02:04.780Z,85.40
2019-02-15T13:04:35.298Z,85.30
2019-02-15T13:07:05.854Z,85.30
2019-02-15T13:09:36.409Z,85.70
2019-02-15T13:12:06.912Z,85.60
2019-02-15T13:14:37.709Z,85.60
2019-02-15T13:17:08.221Z,85.80
2019-02-15T13:19:38.738Z,85.90
2019-02-15T13:22:09.443Z,85.70
2019-02-15T13:24:39.977Z,85.70
2019-02-15T13:27:10.711Z,85.50
2019-02-15T13:29:41.341Z,85.60
2019-02-15T13:32:11.980Z,85.80
2019-02-15T13:34:42.513Z,86.00
2019-02-15T13:37:13.012Z,86.20
2019-02-15T13:39:43.545Z,86.50
2019-02-15T13:42:14.061Z,86.40
2019-02-15T13:44:44.576Z,86.50
2019-02-15T13:47:15.157Z,86.30
2019-02-15T13:49:45.668Z,86.40
2019-02-15T13:52:16.176Z,86.30
2019-02-15T13:54:46.749Z,87.40
2019-02-15T13:57:17.398Z,86.60
2019-02-15T13:59:49.088Z,86.40
2019-02-15T14:02:19.576Z,86.50
2019-02-15T14:04:50.087Z,86.50
2019-02-15T14:07:21.244Z,86.50
2019-02-15T14:09:51.951Z,86.60
2019-02-15T14:12:22.433Z,86.50
2019-02-15T14:14:53.043Z,86.50
2019-02-15T14:17:23.536Z,86.50
2019-02-15T14:19:54.055Z,86.60
2019-02-15T14:22:24.624Z,86.50
2019-02-15T14:24:55.368Z,86.40
2019-02-15T14:27:25.995Z,87.00
2019-02-15T14:29:57.134Z,86.60
2019-02-15T14:32:27.757Z,86.70
2019-02-15T14:34:58.272Z,87.60
2019-02-15T14:37:28.776Z,87.20
2019-02-15T14:39:59.286Z,87.60
2019-02-15T14:42:29.901Z,87.80
2019-02-15T14:45:00.529Z,88.40
2019-02-15T14:47:31.200Z,88.40
2019-02-15T14:50:01.704Z,88.40
2019-02-15T14:52:33.393Z,88.40
2019-02-15T14:55:03.915Z,88.70
2019-02-15T14:57:34.517Z,88.90
2019-02-15T15:00:05.795Z,88.90
2019-02-15T15:02:36.393Z,88.90
2019-02-15T15:05:07.495Z,89.00
2019-02-15T15:07:38.021Z,89.10
2019-02-15T15:10:09.075Z,89.30
2019-02-15T15:12:39.608Z,89.40
2019-02-15T15:15:11.774Z,89.60
2019-02-15T15:17:42.440Z,90.00
2019-02-15T15:20:13.096Z,90.00
2019-02-15T15:22:43.604Z,90.10
2019-02-15T15:25:14.165Z,90.20
2019-02-15T15:27:44.660Z,90.30
2019-02-15T15:30:15.453Z,90.20
2019-02-15T15:32:45.942Z,90.10
2019-02-15T15:35:16.480Z,90.10
2019-02-15T15:37:47.084Z,90.10
2019-02-15T15:40:17.644Z,90.10
2019-02-15T15:42:48.196Z,90.00
2019-02-15T15:45:18.793Z,90.10
2019-02-15T15:47:49.326Z,90.20
2019-02-15T15:50:19.949Z,90.20
2019-02-15T15:52:50.588Z,90.30
2019-02-15T15:55:21.129Z,90.40
2019-02-15T15:57:51.640Z,90.30
2019-02-15T16:00:22.282Z,90.30
2019-02-15T16:02:52.789Z,90.30
2019-02-15T16:05:23.340Z,90.30
2019-02-15T16:07:53.992Z,90.30
2019-02-15T16:10:24.605Z,90.50
2019-02-15T16:12:55.112Z,90.50
2019-02-15T16:15:25.664Z,90.60
2019-02-15T16:17:56.176Z,90.60
2019-02-15T16:20:26.856Z,90.70
2019-02-15T16:22:57.522Z,90.70
2019-02-15T16:25:28.110Z,90.80
2019-02-15T16:27:58.624Z,90.80
2019-02-15T16:30:29.393Z,90.40
2019-02-15T16:32:59.937Z,90.80
2019-02-15T16:35:30.530Z,91.00
2019-02-15T16:38:01.055Z,91.00
2019-02-15T16:40:31.648Z,91.00
2019-02-15T16:43:02.229Z,91.10
2019-02-15T16:45:32.848Z,91.20
2019-02-15T16:48:03.531Z,91.10
2019-02-15T16:50:35.262Z,91.90
2019-02-15T16:53:05.896Z,91.60
2019-02-15T16:55:36.490Z,91.90
2019-02-15T16:58:07.085Z,91.80
2019-02-15T17:00:37.809Z,91.70
2019-02-15T17:03:08.520Z,91.50
2019-02-15T17:05:39.188Z,91.60
2019-02-15T17:08:09.935Z,91.50
2019-02-15T17:10:40.643Z,91.70
2019-02-15T17:13:12.354Z,91.70
2019-02-15T17:15:43.005Z,91.50
2019-02-15T17:18:13.568Z,91.60
2019-02-15T17:20:44.236Z,91.60
2019-02-15T17:23:14.800Z,91.90
2019-02-15T17:25:46.035Z,91.90
2019-02-15T17:28:17.696Z,92.00
2019-02-15T17:30:49.491Z,92.10
2019-02-15T17:33:20.074Z,91.90
2019-02-15T17:35:50.731Z,92.00
2019-02-15T17:38:21.317Z,92.00
2019-02-15T17:40:52.015Z,92.10
2019-02-15T17:43:22.665Z,92.00
2019-02-15T17:45:53.444Z,92.00
2019-02-15T17:48:24.061Z,92.10
2019-02-15T17:50:54.734Z,92.30
2019-02-15T17:53:25.460Z,92.10
2019-02-15T17:55:56.136Z,91.90
2019-02-15T17:58:26.692Z,92.10
2019-02-15T18:00:57.412Z,92.00
2019-02-15T18:03:27.968Z,92.10
2019-02-15T18:05:58.624Z,92.10
2019-02-15T18:08:29.178Z,92.10
2019-02-15T18:10:59.829Z,92.20
2019-02-15T18:13:30.521Z,92.10
2019-02-15T18:16:01.273Z,92.20
2019-02-15T18:18:31.867Z,92.00
2019-02-15T18:21:02.560Z,92.00
2019-02-15T18:23:34.740Z,92.00
2019-02-15T18:26:05.452Z,92.00
2019-02-15T18:28:36.070Z,92.00
2019-02-15T18:31:06.814Z,92.20
2019-02-15T18:33:37.474Z,92.20
2019-02-15T18:36:08.032Z,92.30
2019-02-15T18:38:40.585Z,92.50
2019-02-15T18:41:13.612Z,92.60
2019-02-15T18:43:43.027Z,92.50
2019-02-15T18:46:13.623Z,92.90
2019-02-15T18:48:45.344Z,92.50
2019-02-15T18:51:15.950Z,92.50
2019-02-15T18:53:46.617Z,92.60
2019-02-15T18:56:17.305Z,92.30
2019-02-15T18:58:47.883Z,92.30
2019-02-15T19:01:18.539Z,92.20
2019-02-15T19:03:49.112Z,92.10
2019-02-15T19:06:19.821Z,92.10
2019-02-15T19:08:50.380Z,92.10
2019-02-15T19:11:20.973Z,92.10
2019-02-15T19:13:51.557Z,92.00
2019-02-15T19:16:22.200Z,92.10
2019-02-15T19:18:52.793Z,92.00
2019-02-15T19:21:23.946Z,91.90
2019-02-15T19:23:54.599Z,92.00
2019-02-15T19:26:25.142Z,91.90
2019-02-15T19:28:55.767Z,91.70
2019-02-15T19:31:26.398Z,91.90
2019-02-15T19:33:56.961Z,91.80
2019-02-15T19:36:28.598Z,91.80
2019-02-15T19:38:59.177Z,91.70
2019-02-15T19:41:30.264Z,91.70
2019-02-15T19:44:00.794Z,91.50
2019-02-15T19:46:31.349Z,91.40
2019-02-15T19:49:01.935Z,91.40
2019-02-15T19:51:32.551Z,91.40
2019-02-15T19:54:03.128Z,91.30
2019-02-15T19:56:33.733Z,91.20
2019-02-15T19:59:04.501Z,91.20
2019-02-15T20:01:35.118Z,91.20
2019-02-15T20:04:05.724Z,91.30
2019-02-15T20:06:36.412Z,91.20
2019-02-15T20:09:07.046Z,91.20
2019-02-15T20:11:37.705Z,91.20
2019-02-15T20:14:08.357Z,91.20
2019-02-15T20:16:38.993Z,91.60
2019-02-15T20:19:10.277Z,91.10
2019-02-15T20:21:40.850Z,91.30
2019-02-15T20:24:11.475Z,91.20
2019-02-15T20:26:42.076Z,91.20
2019-02-15T20:29:13.522Z,91.20
2019-02-15T20:31:44.082Z,91.10
2019-02-15T20:34:17.452Z,91.10
2019-02-15T20:36:48.055Z,91.10
2019-02-15T20:39:18.664Z,91.10
2019-02-15T20:41:49.213Z,91.10
2019-02-15T20:44:20.853Z,91.20
2019-02-15T20:46:51.397Z,91.30
2019-02-15T20:49:22.039Z,91.40
2019-02-15T20:51:53.638Z,91.40
2019-02-15T20:54:24.182Z,91.40
2019-02-15T20:56:54.860Z,91.40
2019-02-15T20:59:25.374Z,91.50
2019-02-15T21:01:56.104Z,91.70
2019-02-15T21:04:27.884Z,91.70
2019-02-15T21:06:58.352Z,91.80
2019-02-15T21:09:28.902Z,91.70
2019-02-15T21:12:00.469Z,91.80
2019-02-15T21:14:31.066Z,91.80
2019-02-15T21:17:01.802Z,91.70
2019-02-15T21:19:32.357Z,91.70
2019-02-15T21:22:02.973Z,91.50
2019-02-15T21:24:33.528Z,91.90
2019-02-15T21:27:04.091Z,92.00
2019-02-15T21:29:34.745Z,91.80
2019-02-15T21:32:05.469Z,92.00
2019-02-15T21:34:36.021Z,92.00
2019-02-15T21:37:06.634Z,92.00
2019-02-15T21:39:37.205Z,91.80
2019-02-15T21:42:07.856Z,91.80
2019-02-15T21:44:38.410Z,91.80
2019-02-15T21:47:09.059Z,91.80
2019-02-15T21:49:39.613Z,91.60
2019-02-15T21:52:10.241Z,91.50
2019-02-15T21:54:42.589Z,91.60
2019-02-15T21:57:13.248Z,91.40
2019-02-15T21:59:43.925Z,91.40
2019-02-15T22:02:14.504Z,91.50
2019-02-15T22:04:45.132Z,91.50
2019-02-15T22:07:16.936Z,91.50
2019-02-15T22:09:47.478Z,91.40
2019-02-15T22:12:19.113Z,91.40
2019-02-15T22:14:49.828Z,91.60
2019-02-15T22:17:20.465Z,91.30
2019-02-15T22:19:51.080Z,91.40
2019-02-15T22:22:21.712Z,91.50
2019-02-15T22:24:52.344Z,91.40
2019-02-15T22:27:22.964Z,91.40
2019-02-15T22:29:53.532Z,91.40
2019-02-15T22:32:24.074Z,91.50
2019-02-15T22:34:54.609Z,91.50
2019-02-15T22:37:25.229Z,91.50
2019-02-15T22:39:55.837Z,91.60
2019-02-15T22:42:26.469Z,91.50
2019-02-15T22:44:57.100Z,91.30
2019-02-15T22:47:27.686Z,91.70
2019-02-15T22:49:58.322Z,91.50
2019-02-15T22:52:28.853Z,91.50
2019-02-15T22:54:59.430Z,91.50
2019-02-15T22:57:29.992Z,91.60
2019-02-15T23:00:01.371Z,91.50
2019-02-15T23:02:32.839Z,91.50
2019-02-15T23:05:03.662Z,91.60
2019-02-15T23:07:34.272Z,91.50
2019-02-15T23:10:06.744Z,91.70
2019-02-15T23:12:37.415Z,91.60
2019-02-15T23:15:08.181Z,91.60
2019-02-15T23:17:38.740Z,91.50
2019-02-15T23:20:09.437Z,91.30
2019-02-15T23:22:39.999Z,91.10
2019-02-15T23:25:10.543Z,91.40
2019-02-15T23:27:41.097Z,91.40
2019-02-15T23:30:11.782Z,91.20
2019-02-15T23:32:42.517Z,91.30
2019-02-15T23:35:13.041Z,91.30
2019-02-15T23:37:43.671Z,91.10
2019-02-15T23:40:14.213Z,91.30
2019-02-15T23:42:44.837Z,91.30
2019-02-15T23:45:15.368Z,91.20
2019-02-15T23:47:45.996Z,91.20
2019-02-15T23:50:16.541Z,91.20
2019-02-15T23:52:47.069Z,91.30
2019-02-15T23:55:17.614Z,91.30
2019-02-15T23:57:48.200Z,91.40
